Forum - i mitici sud

tutti gli utenti del gruppo possono partecipare le discussione con riferimento a sesso o non conforme a chatta.it verranno imossi

Amministratore
F.ranco52 13/03/2020 ore 08:43 Quota

(nessuno) Nowcasting Venerdì 13 Marzo 2020

Buongiorno a tutti


Notizie Meteo dell'Italia da il Meteo .It


http://ilMeteo.It


la Situazione Italiana vista dal Sat









il Radar Europeo









Brindisi

METAR LIBR 130650Z 31009KT CAVOK 14/11 Q1015=

METAR di Brindisi del 13 alle 6,50z

Vento da 310° W NW 9 nodi (16,668 km) Visibilità 10000 m
Base delle Nubi e Visibilità OK
Temp 14°C Dew 11°C Ur 81% hPa 1015

Brindisi

TAF LIBR 130500Z 1306/1406 VRB05KT CAVOK BECMG 1308/1310 02010KT BECMG 1318/1320 VRB04KT=

le TAF di Brindisi delle 5z Previsioni dalle 6z alle 6z del 14

Vento Variabile 5 nodi (9,26 kmn) Visibilità 10000 m
Base delle Nubi e Visibilità OK
le Condizioni Diverranno fra le 8z e le 10z
Vento da 20° N NE 10 nodi (18,52 km)
le Condizioni Diverranno fra le 18z e le 20z
Vento Variabile 4 nodi (7,408 km)


Gioia del Colle

METAR LIBV 130655Z 32002KT CAVOK 10/07 Q1015 RMK FEW FEW200 VIS MIN 9999 WIND THR32 34004KT WIND THR14 VRB02KT BLU=

METAR di Gioia del Colle del 13 alle 6,55z

Vento da 320° N NW 2 nodi (3,704 km) Visibilità 10000 m
Base delle Nubi e Visibilità OK
Temp 10°C Dew 7°C Ur 81% hPa 1015
Aumento della Nuvolosità a 1-2 ottavi
Copertura 1-2 ottavi da 20000 piedi (6096 m)
Visibilità Minima 10000 m

Gioia del Colle

TAF LIBV 130500Z 1306/1315 VRB03KT CAVOK=

le TAF di Gioia del Colle delle 5z Previsioni dalle 6z alle 15z

Vento Variabile 3 nodi (5,556 km) Visibilità 10000 m
Base delle Nubi e Visibilità OK
2662201
Buongiorno a tutti Notizie Meteo dell'Italia da il Meteo .It http://ilMeteo.It la Situazione Italiana vista dal Sat « immagine »...
Discussione
13/03/2020 08:43:32
none
  • mi piace
    iLikeIt
    PublicVote

Vuoi partecipare anche tu a questa discussione?

Rispondi per lasciare il tuo messaggio in questa discussione